createdAt,value
2022-11-12T00:01:01.541Z,69.55
2022-11-12T00:03:29.253Z,69.71
2022-11-12T00:05:56.867Z,69.87
2022-11-12T00:08:24.949Z,69.94
2022-11-12T00:10:52.920Z,70.06
2022-11-12T00:13:22.005Z,69.71
2022-11-12T00:15:49.680Z,69.64
2022-11-12T00:18:17.379Z,69.35
2022-11-12T00:20:45.444Z,69.46
2022-11-12T00:23:13.147Z,69.47
2022-11-12T00:25:41.155Z,69.52
2022-11-12T00:28:10.793Z,69.23
2022-11-12T00:30:41.177Z,69.25
2022-11-12T00:33:08.957Z,69.65
2022-11-12T00:35:36.691Z,69.50
2022-11-12T00:38:04.404Z,69.54
2022-11-12T00:40:32.139Z,69.36
2022-11-12T00:42:59.831Z,69.42
2022-11-12T00:45:27.559Z,69.70
2022-11-12T00:47:57.504Z,69.42
2022-11-12T00:50:25.853Z,69.42
2022-11-12T00:52:53.944Z,69.22
2022-11-12T00:55:21.612Z,68.93
2022-11-12T00:57:49.285Z,69.10
2022-11-12T01:00:17.784Z,68.92
2022-11-12T01:02:50.709Z,69.08
2022-11-12T01:05:21.167Z,68.95
2022-11-12T01:07:54.703Z,68.72
2022-11-12T01:10:23.676Z,68.68
2022-11-12T01:12:51.311Z,68.31
2022-11-12T01:15:19.094Z,68.22
2022-11-12T01:17:46.792Z,68.55
2022-11-12T01:20:14.541Z,68.39
2022-11-12T01:22:43.613Z,68.41
2022-11-12T01:25:11.281Z,68.96
2022-11-12T01:27:38.908Z,69.03
2022-11-12T01:30:07.391Z,68.71
2022-11-12T01:32:38.302Z,68.65
2022-11-12T01:35:06.716Z,68.59
2022-11-12T01:37:34.453Z,68.02
2022-11-12T01:40:03.717Z,68.37
2022-11-12T01:42:32.633Z,68.38
2022-11-12T01:45:00.326Z,68.29
2022-11-12T01:47:30.066Z,68.42
2022-11-12T01:50:00.854Z,68.25
2022-11-12T01:52:32.321Z,68.43
2022-11-12T01:55:06.799Z,68.52
2022-11-12T01:57:38.356Z,68.83
2022-11-12T02:00:10.153Z,69.01
2022-11-12T02:02:38.259Z,68.49
2022-11-12T02:05:08.563Z,68.68
2022-11-12T02:07:37.181Z,68.62
2022-11-12T02:10:07.932Z,68.47
2022-11-12T02:12:53.617Z,68.38
2022-11-12T02:15:21.383Z,68.50
2022-11-12T02:17:49.196Z,68.66
2022-11-12T02:20:17.779Z,68.42
2022-11-12T02:22:47.031Z,68.32
2022-11-12T02:25:18.731Z,68.27
2022-11-12T02:27:46.755Z,68.46
2022-11-12T02:30:14.500Z,67.82
2022-11-12T02:32:42.299Z,67.88
2022-11-12T02:35:10.321Z,67.79
2022-11-12T02:37:37.956Z,67.89
2022-11-12T02:40:08.994Z,68.08
2022-11-12T02:42:36.788Z,68.00
2022-11-12T02:45:05.276Z,68.01
2022-11-12T02:47:32.969Z,68.23
2022-11-12T02:50:00.611Z,68.17
2022-11-12T02:52:28.325Z,68.34
2022-11-12T02:54:56.065Z,68.36
2022-11-12T02:57:25.484Z,68.53
2022-11-12T02:59:53.166Z,68.52
2022-11-12T03:02:20.933Z,68.70
2022-11-12T03:04:49.742Z,68.33
2022-11-12T03:07:17.667Z,68.42
2022-11-12T03:09:45.357Z,69.11
2022-11-12T03:12:13.209Z,68.75
2022-11-12T03:14:42.344Z,68.85
2022-11-12T03:17:10.182Z,68.97
2022-11-12T03:19:37.812Z,69.56
2022-11-12T03:22:05.597Z,69.82
2022-11-12T03:24:33.255Z,69.82
2022-11-12T03:27:00.887Z,70.06
2022-11-12T03:29:28.608Z,69.74
2022-11-12T03:31:57.663Z,69.70
2022-11-12T03:34:25.355Z,69.81
2022-11-12T03:36:53.031Z,70.07
2022-11-12T03:39:20.752Z,69.79
2022-11-12T03:41:48.438Z,69.72
2022-11-12T03:44:16.057Z,69.74
2022-11-12T03:46:44.532Z,69.89
2022-11-12T03:49:13.752Z,70.03
2022-11-12T03:51:41.489Z,69.83
2022-11-12T03:54:09.240Z,69.88
2022-11-12T03:56:36.911Z,69.63
2022-11-12T03:59:05.025Z,69.82
2022-11-12T04:01:33.001Z,69.99
2022-11-12T04:04:00.779Z,70.07
2022-11-12T04:06:47.487Z,70.08
2022-11-12T04:09:15.484Z,70.30
2022-11-12T04:11:43.138Z,70.19
2022-11-12T04:14:09.788Z,70.12
2022-11-12T04:16:55.160Z,70.07
2022-11-12T04:19:40.455Z,70.37
2022-11-12T04:22:11.365Z,70.61
2022-11-12T04:24:57.866Z,70.44
2022-11-12T04:27:27.574Z,69.91
2022-11-12T04:30:13.190Z,69.99
2022-11-12T04:32:42.549Z,69.72
2022-11-12T04:35:11.051Z,70.21
2022-11-12T04:37:46.701Z,70.40
2022-11-12T04:40:33.501Z,70.13
2022-11-12T04:43:19.283Z,70.23
2022-11-12T04:45:49.488Z,70.23
2022-11-12T04:48:17.818Z,70.45
2022-11-12T04:50:46.822Z,70.39
2022-11-12T04:53:16.134Z,70.53
2022-11-12T04:55:43.753Z,70.63
2022-11-12T04:58:11.874Z,70.71
2022-11-12T05:00:39.643Z,70.65
2022-11-12T05:03:07.353Z,70.77
2022-11-12T05:05:35.007Z,70.56
2022-11-12T05:08:03.144Z,70.41
2022-11-12T05:10:32.623Z,70.39
2022-11-12T05:13:00.354Z,70.58
2022-11-12T05:15:28.103Z,70.87
2022-11-12T05:17:55.778Z,70.59
2022-11-12T05:20:23.500Z,70.78
2022-11-12T05:23:05.432Z,70.28
2022-11-12T05:25:35.326Z,70.58
2022-11-12T05:28:02.971Z,70.39
2022-11-12T05:30:30.732Z,70.44
2022-11-12T05:32:58.372Z,70.40
2022-11-12T05:35:26.080Z,70.05
2022-11-12T05:37:53.740Z,70.20
2022-11-12T05:40:21.517Z,69.89
2022-11-12T05:42:50.544Z,69.77
2022-11-12T05:45:18.254Z,69.23
2022-11-12T05:47:45.883Z,69.57
2022-11-12T05:50:13.539Z,69.42
2022-11-12T05:52:41.184Z,69.34
2022-11-12T05:55:09.536Z,69.60
2022-11-12T05:57:37.146Z,69.08
2022-11-12T06:00:07.634Z,69.06
2022-11-12T06:02:35.355Z,68.85
2022-11-12T06:05:03.178Z,68.75
2022-11-12T06:07:30.980Z,68.98
2022-11-12T06:09:58.671Z,68.96
2022-11-12T06:12:26.313Z,69.24
2022-11-12T06:14:53.941Z,68.75
2022-11-12T06:17:23.085Z,69.08
2022-11-12T06:19:50.841Z,69.25
2022-11-12T06:22:18.577Z,69.11
2022-11-12T06:24:46.494Z,69.14
2022-11-12T06:27:14.148Z,68.99
2022-11-12T06:29:41.836Z,69.14
2022-11-12T06:32:09.551Z,69.02
2022-11-12T06:34:38.614Z,69.25
2022-11-12T06:37:06.395Z,68.85
2022-11-12T06:39:34.075Z,68.79
2022-11-12T06:42:02.024Z,68.63
2022-11-12T06:44:29.838Z,68.74
2022-11-12T06:46:57.521Z,68.67
2022-11-12T06:49:25.229Z,68.37
2022-11-12T06:51:54.279Z,68.50
2022-11-12T06:54:21.978Z,68.35
2022-11-12T06:56:49.687Z,68.16
2022-11-12T06:59:17.556Z,68.45
2022-11-12T07:01:45.481Z,68.15
2022-11-12T07:04:13.228Z,68.21
2022-11-12T07:06:40.929Z,68.62
2022-11-12T07:09:10.050Z,68.57
2022-11-12T07:11:37.739Z,68.66
2022-11-12T07:14:06.562Z,68.69
2022-11-12T07:16:34.656Z,68.89
2022-11-12T07:19:02.450Z,68.86
2022-11-12T07:21:30.097Z,68.83
2022-11-12T07:23:57.791Z,69.20
2022-11-12T07:26:28.507Z,68.81
2022-11-12T07:28:56.688Z,68.95
2022-11-12T07:31:25.809Z,69.01
2022-11-12T07:33:53.532Z,69.05
2022-11-12T07:36:22.344Z,69.38
2022-11-12T07:38:52.743Z,69.60
2022-11-12T07:41:21.584Z,69.98
2022-11-12T07:43:52.199Z,69.70
2022-11-12T07:46:22.371Z,70.20
2022-11-12T07:48:50.228Z,70.45
2022-11-12T07:51:19.641Z,70.64
2022-11-12T07:53:48.134Z,70.73
2022-11-12T07:56:17.550Z,71.25
2022-11-12T07:58:45.968Z,71.59
2022-11-12T08:01:24.468Z,71.58
2022-11-12T08:03:52.532Z,71.09
2022-11-12T08:06:20.257Z,71.41
2022-11-12T08:08:47.932Z,71.10
2022-11-12T08:11:15.613Z,71.45
2022-11-12T08:13:43.249Z,72.41
2022-11-12T08:16:10.873Z,73.32
2022-11-12T08:18:39.922Z,73.63
2022-11-12T08:21:08.835Z,73.88
2022-11-12T08:23:36.464Z,74.47
2022-11-12T08:26:05.583Z,74.31
2022-11-12T08:28:34.626Z,74.61
2022-11-12T08:31:05.090Z,74.94
2022-11-12T08:33:32.712Z,74.89
2022-11-12T08:36:03.833Z,75.35
2022-11-12T08:38:31.653Z,75.46
2022-11-12T08:41:01.656Z,75.55
2022-11-12T08:43:29.236Z,75.69
2022-11-12T08:45:59.145Z,75.89
2022-11-12T08:48:27.354Z,75.88
2022-11-12T08:50:55.288Z,75.73
2022-11-12T08:53:25.188Z,75.65
2022-11-12T08:55:54.631Z,76.01
2022-11-12T08:58:22.666Z,75.89
2022-11-12T09:00:50.956Z,75.91
2022-11-12T09:03:20.150Z,76.15
2022-11-12T09:05:48.317Z,75.95
2022-11-12T09:08:18.426Z,75.94
2022-11-12T09:10:47.797Z,76.07
2022-11-12T09:13:15.442Z,75.99
2022-11-12T09:15:43.074Z,75.89
2022-11-12T09:18:13.374Z,75.90
2022-11-12T09:20:41.176Z,76.04
2022-11-12T09:23:10.695Z,75.49
2022-11-12T09:25:38.802Z,75.23
2022-11-12T09:28:12.778Z,75.66
2022-11-12T09:30:46.370Z,75.51
2022-11-12T09:33:14.405Z,75.50
2022-11-12T09:35:42.072Z,75.22
2022-11-12T09:38:09.686Z,75.47
2022-11-12T09:40:56.559Z,75.07
2022-11-12T09:43:28.520Z,75.34
2022-11-12T09:46:21.492Z,75.15
2022-11-12T09:48:49.223Z,74.98
2022-11-12T09:51:23.212Z,75.50
2022-11-12T09:53:56.247Z,75.24
2022-11-12T09:56:25.141Z,75.30
2022-11-12T09:58:54.942Z,74.98
2022-11-12T10:01:26.069Z,75.49
2022-11-12T10:04:00.318Z,75.32
2022-11-12T10:06:32.264Z,75.16
2022-11-12T10:09:05.922Z,75.73
2022-11-12T10:12:04.201Z,75.58
2022-11-12T10:14:47.470Z,76.73
2022-11-12T10:17:19.062Z,76.28
2022-11-12T10:19:55.091Z,75.25
2022-11-12T10:22:34.195Z,72.32
2022-11-12T10:25:14.170Z,72.64
2022-11-12T10:27:43.368Z,73.59
2022-11-12T10:30:17.918Z,72.61
2022-11-12T10:32:46.993Z,72.23
2022-11-12T10:35:17.519Z,73.88
2022-11-12T10:37:49.092Z,73.89
2022-11-12T10:40:29.430Z,73.87
2022-11-12T10:42:59.519Z,74.29
2022-11-12T10:45:28.899Z,71.85
2022-11-12T10:47:57.127Z,71.34
2022-11-12T10:50:26.693Z,73.20
2022-11-12T10:52:59.848Z,71.55
2022-11-12T10:55:29.023Z,71.56
2022-11-12T10:58:23.829Z,73.57
2022-11-12T11:00:58.836Z,71.55
2022-11-12T11:03:28.612Z,71.29
2022-11-12T11:05:59.403Z,71.06
2022-11-12T11:08:36.459Z,70.40
2022-11-12T11:11:26.237Z,70.61
2022-11-12T11:13:56.132Z,73.32
2022-11-12T11:16:26.606Z,73.53
2022-11-12T11:18:56.933Z,73.54
2022-11-12T11:21:53.739Z,74.67
2022-11-12T11:24:37.887Z,72.60
2022-11-12T11:27:09.421Z,71.64
2022-11-12T11:29:49.462Z,69.98
2022-11-12T11:32:36.063Z,71.59
2022-11-12T11:35:15.915Z,70.57
2022-11-12T11:37:48.109Z,72.84
2022-11-12T11:40:22.392Z,71.77
2022-11-12T11:43:04.418Z,70.94
2022-11-12T11:45:37.763Z,69.99
2022-11-12T11:48:14.030Z,69.75
2022-11-12T11:50:44.222Z,71.45
2022-11-12T11:53:20.458Z,67.34
2022-11-12T11:55:56.013Z,69.01
2022-11-12T11:58:41.127Z,68.09
2022-11-12T12:01:13.716Z,68.68
2022-11-12T12:03:53.436Z,69.66
2022-11-12T12:06:23.779Z,70.32
2022-11-12T12:09:00.788Z,68.51
2022-11-12T12:11:32.161Z,67.55
2022-11-12T12:14:28.047Z,69.18
2022-11-12T12:17:03.194Z,69.05
2022-11-12T12:19:41.392Z,68.70
2022-11-12T12:22:12.771Z,67.48
2022-11-12T12:24:47.549Z,67.81
2022-11-12T12:27:19.239Z,68.14
2022-11-12T12:29:50.023Z,66.78
2022-11-12T12:32:24.135Z,65.69
2022-11-12T12:34:58.027Z,68.43
2022-11-12T12:37:28.665Z,68.11
2022-11-12T12:40:04.374Z,67.07
2022-11-12T12:42:37.517Z,66.36
2022-11-12T12:45:23.104Z,67.43
2022-11-12T12:47:51.080Z,66.88
2022-11-12T12:50:22.431Z,67.88
2022-11-12T12:53:42.920Z,67.13
2022-11-12T12:56:44.179Z,68.60
2022-11-12T12:59:21.147Z,67.36
2022-11-12T13:01:56.388Z,65.96
2022-11-12T13:04:52.513Z,65.86
2022-11-12T13:07:42.908Z,67.28
2022-11-12T13:10:52.588Z,68.10
2022-11-12T13:13:32.596Z,66.76
2022-11-12T13:16:01.911Z,68.03
2022-11-12T13:19:00.280Z,67.51
2022-11-12T13:21:28.189Z,65.76
2022-11-12T13:24:11.016Z,66.91
2022-11-12T13:26:53.319Z,67.47
2022-11-12T13:29:27.194Z,67.94
2022-11-12T13:32:27.850Z,66.27
2022-11-12T13:35:40.274Z,66.58
2022-11-12T13:38:15.513Z,66.87
2022-11-12T13:40:46.688Z,66.84
2022-11-12T13:43:33.767Z,65.75
2022-11-12T13:46:23.656Z,66.51
2022-11-12T13:48:58.761Z,66.40
2022-11-12T13:51:31.406Z,65.67
2022-11-12T13:53:59.243Z,65.31
2022-11-12T13:56:30.376Z,66.67
2022-11-12T13:59:09.742Z,66.60
2022-11-12T14:03:18.456Z,66.30
2022-11-12T14:05:48.426Z,64.60
2022-11-12T14:08:35.182Z,66.24
2022-11-12T14:11:26.257Z,66.15
2022-11-12T14:14:02.622Z,67.36
2022-11-12T14:16:39.468Z,66.17
2022-11-12T14:19:24.189Z,65.26
2022-11-12T14:22:02.691Z,65.49
2022-11-12T14:24:33.413Z,65.85
2022-11-12T14:27:01.092Z,65.23
2022-11-12T14:29:34.185Z,65.80
2022-11-12T14:32:03.881Z,65.74
2022-11-12T14:34:34.215Z,65.48
2022-11-12T14:37:02.456Z,65.32
2022-11-12T14:39:30.832Z,65.44
2022-11-12T14:44:10.878Z,65.56
2022-11-12T14:46:46.188Z,66.24
2022-11-12T14:49:19.436Z,65.78
2022-11-12T14:51:50.416Z,65.67
2022-11-12T14:54:25.407Z,65.82
2022-11-12T14:56:53.269Z,65.66
2022-11-12T14:59:22.349Z,65.55
2022-11-12T15:02:37.377Z,65.74
2022-11-12T15:05:01.995Z,65.44
2022-11-12T15:07:32.274Z,65.69
2022-11-12T15:09:59.865Z,65.69
2022-11-12T15:12:30.123Z,65.69
2022-11-12T15:15:09.631Z,65.80
2022-11-12T15:17:38.192Z,65.75
2022-11-12T15:20:07.828Z,66.34
2022-11-12T15:22:35.834Z,66.65
2022-11-12T15:25:18.101Z,67.26
2022-11-12T15:27:45.746Z,67.98
2022-11-12T15:30:20.976Z,68.40
2022-11-12T15:32:48.615Z,69.04
2022-11-12T15:35:37.931Z,69.10
2022-11-12T15:38:07.855Z,69.16
2022-11-12T15:40:43.937Z,69.47
2022-11-12T15:43:14.683Z,69.18
2022-11-12T15:46:16.494Z,69.58
2022-11-12T15:48:44.323Z,69.54
2022-11-12T15:51:12.539Z,69.75
2022-11-12T15:53:40.100Z,70.29
2022-11-12T15:56:10.038Z,70.02
2022-11-12T15:58:40.374Z,70.66
2022-11-12T16:01:07.961Z,70.55
2022-11-12T16:03:37.046Z,70.53
2022-11-12T16:06:09.013Z,70.42
2022-11-12T16:08:37.222Z,70.67
2022-11-12T16:11:24.908Z,70.95
2022-11-12T16:13:52.607Z,70.62
2022-11-12T16:16:20.167Z,70.93
2022-11-12T16:18:49.183Z,70.71
2022-11-12T16:21:20.670Z,70.98
2022-11-12T16:23:48.656Z,70.82
2022-11-12T16:26:21.166Z,71.15
2022-11-12T16:28:48.753Z,71.24
2022-11-12T16:31:16.352Z,71.10
2022-11-12T16:33:44.961Z,71.15
2022-11-12T16:36:15.942Z,71.49
2022-11-12T16:38:43.737Z,71.81
2022-11-12T16:41:12.875Z,71.74
2022-11-12T16:43:40.661Z,71.36
2022-11-12T16:46:15.294Z,71.82
2022-11-12T16:48:42.959Z,71.24
2022-11-12T16:51:18.407Z,71.42
2022-11-12T16:53:46.564Z,71.69
2022-11-12T16:56:15.428Z,71.63
2022-11-12T16:58:43.191Z,71.62
2022-11-12T17:01:14.616Z,71.59
2022-11-12T17:03:42.846Z,71.33
2022-11-12T17:06:10.464Z,71.47
2022-11-12T17:08:39.691Z,71.66
2022-11-12T17:11:09.672Z,71.83
2022-11-12T17:13:38.630Z,72.13
2022-11-12T17:16:07.066Z,72.00
2022-11-12T17:18:35.175Z,71.84
2022-11-12T17:21:10.886Z,71.81
2022-11-12T17:23:40.161Z,71.82
2022-11-12T17:26:09.196Z,71.58
2022-11-12T17:28:37.432Z,71.82
2022-11-12T17:31:06.833Z,71.90
2022-11-12T17:33:38.604Z,71.91
2022-11-12T17:36:07.804Z,71.74
2022-11-12T17:38:35.509Z,71.90
2022-11-12T17:41:05.039Z,71.59
2022-11-12T17:43:32.902Z,71.75
2022-11-12T17:46:00.842Z,72.15
2022-11-12T17:48:28.907Z,72.35
2022-11-12T17:51:06.008Z,72.38
2022-11-12T17:53:33.706Z,72.33
2022-11-12T17:56:01.603Z,72.57
2022-11-12T18:00:07.147Z,72.43
2022-11-12T18:02:34.786Z,72.73
2022-11-12T18:05:02.463Z,72.68
2022-11-12T18:07:30.375Z,72.34
2022-11-12T18:09:58.290Z,72.45
2022-11-12T18:12:25.960Z,72.26
2022-11-12T18:14:53.585Z,72.51
2022-11-12T18:17:22.673Z,72.42
2022-11-12T18:19:50.321Z,72.39
2022-11-12T18:22:19.449Z,72.49
2022-11-12T18:24:48.141Z,72.11
2022-11-12T18:27:15.944Z,72.39
2022-11-12T18:29:45.600Z,72.13
2022-11-12T18:32:13.640Z,72.04
2022-11-12T18:34:45.091Z,71.81
2022-11-12T18:37:13.137Z,72.04
2022-11-12T18:39:41.032Z,71.75
2022-11-12T18:42:08.689Z,72.21
2022-11-12T18:44:37.521Z,72.14
2022-11-12T18:47:05.240Z,72.21
2022-11-12T18:50:15.991Z,72.21
2022-11-12T18:52:43.657Z,72.27
2022-11-12T18:55:11.520Z,72.46
2022-11-12T18:57:39.241Z,72.08
2022-11-12T19:00:07.545Z,71.93
2022-11-12T19:02:35.251Z,72.24
2022-11-12T19:05:02.944Z,71.98
2022-11-12T19:07:32.091Z,72.16
2022-11-12T19:09:59.892Z,72.71
2022-11-12T19:12:27.633Z,73.06
2022-11-12T19:14:55.430Z,73.23
2022-11-12T19:17:25.990Z,73.22
2022-11-12T19:19:56.022Z,72.01
2022-11-12T19:22:23.687Z,72.21
2022-11-12T19:24:53.070Z,71.93
2022-11-12T19:27:20.905Z,71.92
2022-11-12T19:29:49.553Z,71.91
2022-11-12T19:32:17.164Z,71.84
2022-11-12T19:34:44.820Z,72.14
2022-11-12T19:37:32.424Z,71.87
2022-11-12T19:40:01.523Z,72.17
2022-11-12T19:42:29.209Z,72.48
2022-11-12T19:44:56.852Z,72.91
2022-11-12T19:47:24.633Z,73.01
2022-11-12T19:49:52.285Z,73.11
2022-11-12T19:52:19.981Z,73.19
2022-11-12T19:54:47.748Z,73.53
2022-11-12T19:57:16.794Z,73.48
2022-11-12T19:59:44.472Z,73.67
2022-11-12T20:02:12.815Z,73.94
2022-11-12T20:04:40.574Z,73.69
2022-11-12T20:07:09.238Z,73.32
2022-11-12T20:09:37.269Z,73.23
2022-11-12T20:12:06.033Z,73.17
2022-11-12T20:14:35.261Z,72.89
2022-11-12T20:17:02.966Z,72.66
2022-11-12T20:19:30.672Z,72.33
2022-11-12T20:21:58.361Z,72.16
2022-11-12T20:24:26.054Z,72.36
2022-11-12T20:26:53.765Z,72.44
2022-11-12T20:29:21.476Z,72.37
2022-11-12T20:31:50.487Z,72.35
2022-11-12T20:34:18.153Z,72.29
2022-11-12T20:36:45.855Z,72.76
2022-11-12T20:39:13.554Z,72.69
2022-11-12T20:41:41.146Z,73.08
2022-11-12T20:44:09.119Z,72.99
2022-11-12T20:46:36.773Z,73.11
2022-11-12T20:49:06.523Z,73.31
2022-11-12T20:51:35.077Z,72.97
2022-11-12T20:54:03.263Z,73.02
2022-11-12T20:56:31.884Z,72.40
2022-11-12T20:59:00.179Z,72.29
2022-11-12T21:01:29.085Z,72.39
2022-11-12T21:03:58.029Z,72.08
2022-11-12T21:06:29.226Z,72.32
2022-11-12T21:08:59.777Z,72.63
2022-11-12T21:11:27.424Z,72.66
2022-11-12T21:13:55.304Z,72.93
2022-11-12T21:16:22.933Z,73.00
2022-11-12T21:18:50.561Z,72.87
2022-11-12T21:21:21.139Z,72.61
2022-11-12T21:23:51.291Z,72.61
2022-11-12T21:26:20.334Z,73.04
2022-11-12T21:28:49.350Z,72.79
2022-11-12T21:31:18.276Z,72.69
2022-11-12T21:33:45.927Z,72.71
2022-11-12T21:36:16.567Z,72.78
2022-11-12T21:38:44.584Z,72.45
2022-11-12T21:41:14.974Z,72.60
2022-11-12T21:43:44.630Z,72.15
2022-11-12T21:46:14.402Z,72.34
2022-11-12T21:48:42.174Z,72.59
2022-11-12T21:51:11.629Z,72.71
2022-11-12T21:53:39.814Z,72.12
2022-11-12T21:56:10.628Z,72.11
2022-11-12T21:58:39.861Z,71.84
2022-11-12T22:01:08.882Z,71.83
2022-11-12T22:03:36.637Z,72.18
2022-11-12T22:06:04.483Z,72.41
2022-11-12T22:08:32.239Z,72.29
2022-11-12T22:11:03.845Z,72.30
2022-11-12T22:13:31.669Z,71.74
2022-11-12T22:16:05.236Z,71.63
2022-11-12T22:18:34.195Z,71.76
2022-11-12T22:21:03.554Z,71.53
2022-11-12T22:23:32.967Z,71.16
2022-11-12T22:26:00.958Z,71.60
2022-11-12T22:28:29.041Z,71.75
2022-11-12T22:30:57.050Z,72.14
2022-11-12T22:33:26.090Z,71.80
2022-11-12T22:35:53.673Z,72.48
2022-11-12T22:38:21.359Z,72.68
2022-11-12T22:40:49.027Z,72.52
2022-11-12T22:43:16.614Z,72.21
2022-11-12T22:45:44.241Z,72.54
2022-11-12T22:48:11.903Z,72.90
2022-11-12T22:50:41.151Z,72.67
2022-11-12T22:53:08.883Z,72.78
2022-11-12T22:55:36.622Z,72.53
2022-11-12T22:58:04.300Z,72.87
2022-11-12T23:00:33.280Z,72.79
2022-11-12T23:03:00.973Z,72.91
2022-11-12T23:05:28.573Z,73.11
2022-11-12T23:07:57.806Z,73.10
2022-11-12T23:10:25.437Z,73.32
2022-11-12T23:12:53.131Z,73.37
2022-11-12T23:15:20.757Z,73.05
2022-11-12T23:17:48.444Z,73.53
2022-11-12T23:20:16.701Z,73.32
2022-11-12T23:22:44.332Z,72.79
2022-11-12T23:25:13.428Z,72.88
2022-11-12T23:27:41.228Z,72.87
2022-11-12T23:30:09.800Z,73.23
2022-11-12T23:32:37.403Z,73.39
2022-11-12T23:35:06.009Z,73.25
2022-11-12T23:37:33.686Z,73.10
2022-11-12T23:40:01.361Z,73.14
2022-11-12T23:42:30.444Z,72.82
2022-11-12T23:44:58.129Z,72.93
2022-11-12T23:47:25.744Z,72.62
2022-11-12T23:49:53.485Z,72.76
2022-11-12T23:52:21.156Z,72.62
2022-11-12T23:54:48.806Z,72.30
2022-11-12T23:57:16.573Z,72.34
2022-11-12T23:59:46.103Z,72.26
